createdAt,value
2018-10-03T04:32:41.977Z,8.60
2018-10-03T04:43:19.943Z,8.50
2018-10-03T04:46:03.526Z,8.50
2018-10-03T04:59:38.310Z,8.70
2018-10-03T05:02:22.737Z,8.70
2018-10-03T05:28:06.660Z,8.60
2018-10-03T05:56:09.018Z,8.20
2018-10-03T05:58:37.417Z,8.00
2018-10-03T06:24:44.179Z,8.00
2018-10-03T06:39:29.221Z,7.80
2018-10-03T06:44:42.439Z,7.90
2018-10-03T06:47:14.133Z,7.90
2018-10-03T06:52:41.247Z,7.80
2018-10-03T06:55:14.762Z,7.80
2018-10-03T06:57:59.679Z,7.80
2018-10-03T07:00:40.567Z,7.80
2018-10-03T07:15:00.855Z,7.80
2018-10-03T07:17:34.712Z,7.80
2018-10-03T07:20:06.768Z,7.80
2018-10-03T07:22:45.546Z,7.80
2018-10-03T07:25:17.262Z,7.80
2018-10-03T07:30:33.101Z,8.00
2018-10-03T07:33:04.569Z,8.20
2018-10-03T07:39:23.355Z,8.30
2018-10-03T07:50:17.746Z,8.20
2018-10-03T07:55:38.240Z,8.30
2018-10-03T07:58:30.583Z,8.30
2018-10-03T08:01:15.881Z,8.30
2018-10-03T08:03:57.556Z,8.40
2018-10-03T08:06:30.168Z,8.40
2018-10-03T08:09:03.936Z,8.40
2018-10-03T08:11:36.635Z,8.50
2018-10-03T08:14:06.973Z,8.60
2018-10-03T08:16:37.383Z,8.60
2018-10-03T08:19:11.093Z,8.60
2018-10-03T08:21:40.217Z,8.60
2018-10-03T08:24:09.759Z,8.60
2018-10-03T08:26:39.435Z,8.70
2018-10-03T08:29:08.503Z,8.80
2018-10-03T08:31:41.731Z,8.70
2018-10-03T08:34:12.922Z,8.50
2018-10-03T08:36:52.159Z,8.40
2018-10-03T08:39:23.412Z,8.40
2018-10-03T08:41:53.630Z,8.50
2018-10-03T08:44:22.197Z,8.50
2018-10-03T08:46:53.476Z,8.70
2018-10-03T08:49:21.965Z,8.70
2018-10-03T08:51:55.241Z,8.80
2018-10-03T08:54:24.419Z,8.80
2018-10-03T08:56:57.320Z,8.70
2018-10-03T08:59:27.369Z,8.70
2018-10-03T09:02:03.644Z,8.60
2018-10-03T09:04:32.555Z,8.60
2018-10-03T09:07:01.159Z,8.40
2018-10-03T09:09:30.862Z,8.40
2018-10-03T09:12:04.221Z,8.40
2018-10-03T09:14:35.151Z,8.40
2018-10-03T09:19:56.486Z,8.30
2018-10-03T09:22:38.476Z,8.40
2018-10-03T09:25:14.499Z,8.50
2018-10-03T09:27:49.285Z,8.60
2018-10-03T09:30:24.108Z,8.80
2018-10-03T09:32:53.444Z,8.80
2018-10-03T09:35:22.381Z,8.90
2018-10-03T09:37:52.701Z,8.90
2018-10-03T09:40:21.615Z,8.80
2018-10-03T09:42:52.923Z,8.80
2018-10-03T09:45:22.777Z,8.80
2018-10-03T09:47:52.031Z,8.90
2018-10-03T09:50:23.915Z,9.00
2018-10-03T09:52:56.674Z,9.20
2018-10-03T09:55:55.612Z,9.30
2018-10-03T09:58:26.457Z,9.50
2018-10-03T10:01:04.051Z,9.60
2018-10-03T10:03:38.335Z,9.60
2018-10-03T10:08:55.735Z,9.90
2018-10-03T10:16:42.477Z,9.60
2018-10-03T10:19:13.238Z,9.40
2018-10-03T10:21:42.764Z,9.40
2018-10-03T10:24:24.741Z,9.50
2018-10-03T10:26:59.982Z,9.50
2018-10-03T10:29:39.128Z,9.60
2018-10-03T10:32:15.475Z,9.70
2018-10-03T10:34:46.513Z,9.70
2018-10-03T10:40:08.743Z,9.60
2018-10-03T10:45:29.345Z,9.70
2018-10-03T10:48:00.986Z,9.60
2018-10-03T10:50:41.987Z,9.40
2018-10-03T10:53:18.265Z,9.40
2018-10-03T11:04:16.840Z,9.60
2018-10-03T11:12:42.039Z,9.80
2018-10-03T11:18:40.188Z,9.70
2018-10-03T11:59:46.896Z,9.60
2018-10-03T12:08:02.703Z,9.40
2018-10-03T12:10:42.912Z,9.50
2018-10-03T15:44:48.854Z,11.60
2018-10-03T16:05:56.609Z,11.80
2018-10-03T16:45:04.492Z,11.30
2018-10-03T19:17:40.839Z,10.80
2018-10-03T19:20:09.200Z,10.70
2018-10-03T19:22:37.483Z,10.70
2018-10-03T19:25:08.026Z,10.70
2018-10-03T19:27:36.646Z,10.70
2018-10-03T19:30:05.097Z,10.70
2018-10-03T19:32:33.766Z,10.70
2018-10-03T19:35:07.466Z,10.70
2018-10-03T19:37:35.892Z,10.60
2018-10-03T19:51:17.908Z,10.60
2018-10-03T19:56:35.509Z,10.60
2018-10-03T19:59:11.386Z,10.50
2018-10-03T20:01:45.431Z,10.50
2018-10-03T20:04:15.574Z,10.50
2018-10-03T20:06:46.073Z,10.50
2018-10-03T20:15:13.095Z,10.50
2018-10-03T20:43:09.487Z,10.50
2018-10-03T21:12:36.278Z,10.30
2018-10-03T21:49:59.632Z,10.20
2018-10-03T21:52:40.714Z,10.20
2018-10-03T21:55:30.044Z,10.20
2018-10-03T21:58:23.695Z,10.10
2018-10-03T22:01:11.321Z,10.10
2018-10-03T22:15:20.520Z,10.20
2018-10-03T22:20:41.581Z,10.30
2018-10-03T22:23:21.480Z,10.30
2018-10-03T22:26:07.847Z,10.40
2018-10-03T22:28:42.719Z,10.40
2018-10-03T22:31:18.858Z,10.40
2018-10-03T22:33:51.254Z,10.40
2018-10-03T22:36:22.855Z,10.40
2018-10-03T22:38:55.251Z,10.50
2018-10-03T22:41:34.240Z,10.50
2018-10-03T22:44:07.250Z,10.60
2018-10-03T22:47:03.992Z,10.60
2018-10-03T22:49:38.219Z,10.70
2018-10-03T22:52:18.350Z,10.60
2018-10-03T22:54:54.216Z,10.70
2018-10-03T22:57:28.811Z,10.70
2018-10-03T23:06:04.135Z,10.70
2018-10-03T23:11:30.874Z,10.60
2018-10-03T23:16:52.628Z,10.50
2018-10-03T23:19:27.337Z,10.40
2018-10-03T23:22:03.971Z,10.30
2018-10-03T23:24:36.220Z,10.30
2018-10-03T23:27:36.969Z,10.20
2018-10-03T23:30:17.712Z,10.10
2018-10-03T23:32:55.234Z,10.10
2018-10-03T23:35:41.684Z,10.10
2018-10-03T23:41:03.507Z,10.00
2018-10-03T23:43:41.650Z,10.00
2018-10-03T23:46:22.863Z,10.00
2018-10-03T23:48:55.952Z,10.00
2018-10-03T23:51:26.617Z,10.00
2018-10-03T23:54:04.079Z,9.90
2018-10-03T23:56:44.681Z,9.90
2018-10-03T23:59:19.874Z,9.90
